Appleton, Washington
Current Conditions -  °F | °C
As of 2:53 PM on Tuesday 21 Oct 2014 (Local Time) from KDLS Reporting Station
Overcast Overcast  
Wind Chill: 64°   Ceiling: 6500
Heat Index: 64°   Visibility: 10mi
Dew Point: 47°   Wind: 8mph
Humidity: 54%   Direction: 320°NW
Pressure: 29.95"   Gusts: NA
Location:  45.81°N, 121.27°W
Report Text: KDLS 212153Z AUTO 32007KT 10SM OVC065 18/08 A2995 RMK AO2 SLP143 T01780083
Loading
Personal Weather Stations






























Interactive Weather Map New forecast layout! Learn more

10-Day Weather Forecast

Advertisements
Track Severe Weather on mobile